createdAt,value
2022-11-04T00:02:16.880Z,99814.00
2022-11-04T00:04:43.998Z,99810.53
2022-11-04T00:07:31.150Z,99798.53
2022-11-04T00:09:58.208Z,99801.94
2022-11-04T00:12:25.237Z,99793.34
2022-11-04T00:14:52.429Z,99802.78
2022-11-04T00:17:19.734Z,99780.50
2022-11-04T00:20:07.723Z,99789.91
2022-11-04T00:22:54.310Z,99793.34
2022-11-04T00:28:35.350Z,99788.19
2022-11-04T00:31:22.664Z,99793.34
2022-11-04T00:33:51.551Z,99785.59
2022-11-04T00:36:18.979Z,99788.16
2022-11-04T00:38:46.706Z,99788.16
2022-11-04T00:41:26.672Z,99795.03
2022-11-04T00:43:56.306Z,99783.03
2022-11-04T00:46:23.656Z,99789.88
2022-11-04T00:48:50.730Z,99789.88
2022-11-04T00:51:18.424Z,99784.75
2022-11-04T00:53:45.828Z,99783.00
2022-11-04T00:56:13.107Z,99777.00
2022-11-04T00:58:40.374Z,99767.56
2022-11-04T01:01:09.551Z,99768.41
2022-11-04T01:03:37.240Z,99765.00
2022-11-04T01:06:04.561Z,99757.25
2022-11-04T01:08:31.737Z,99760.72
2022-11-04T01:11:03.115Z,99753.81
2022-11-04T01:13:30.269Z,99759.00
2022-11-04T01:16:07.195Z,99756.41
2022-11-04T01:18:34.799Z,99743.56
2022-11-04T01:21:03.989Z,99738.34
2022-11-04T01:23:31.518Z,99737.50
2022-11-04T01:25:58.583Z,99736.66
2022-11-04T01:28:26.950Z,99729.81
2022-11-04T01:30:53.985Z,99738.41
2022-11-04T01:33:21.259Z,99724.63
2022-11-04T01:35:48.239Z,99728.06
2022-11-04T01:38:15.338Z,99721.22
2022-11-04T01:40:42.970Z,99722.91
2022-11-04T01:43:21.911Z,99723.78
2022-11-04T01:46:01.680Z,99723.81
2022-11-04T01:48:34.386Z,99716.06
2022-11-04T01:51:01.468Z,99702.41
2022-11-04T01:53:35.745Z,99698.94
2022-11-04T01:56:12.346Z,99700.63
2022-11-04T01:58:46.035Z,99695.47
2022-11-04T02:01:13.472Z,99693.78
2022-11-04T02:04:19.506Z,99690.31
2022-11-04T02:06:48.670Z,99686.91
2022-11-04T02:09:18.664Z,99674.84
2022-11-04T02:12:04.812Z,99674.84
2022-11-04T02:14:34.644Z,99669.69
2022-11-04T02:17:23.104Z,99660.28
2022-11-04T02:20:14.943Z,99662.81
2022-11-04T02:23:08.796Z,99661.97
2022-11-04T02:26:03.947Z,99654.22
2022-11-04T02:28:50.785Z,99641.41
2022-11-04T02:31:23.831Z,99646.50
2022-11-04T02:34:09.759Z,99642.19
2022-11-04T02:36:55.546Z,99632.75
2022-11-04T02:39:35.068Z,99630.22
2022-11-04T02:42:14.052Z,99629.31
2022-11-04T02:45:00.282Z,99630.19
2022-11-04T02:47:31.872Z,99638.72
2022-11-04T02:50:12.577Z,99629.25
2022-11-04T02:52:48.596Z,99624.94
2022-11-04T02:55:23.621Z,99620.66
2022-11-04T02:57:54.584Z,99625.81
2022-11-04T03:00:22.154Z,99623.25
2022-11-04T03:03:10.072Z,99611.25
2022-11-04T03:06:05.184Z,99611.19
2022-11-04T03:08:39.721Z,99612.09
2022-11-04T03:11:22.149Z,99605.19
2022-11-04T03:14:01.916Z,99600.94
2022-11-04T03:16:33.194Z,99605.25
2022-11-04T03:19:15.495Z,99602.66
2022-11-04T03:21:51.304Z,99602.66
2022-11-04T03:24:18.402Z,99600.97
2022-11-04T03:26:53.110Z,99604.38
2022-11-04T03:29:37.946Z,99605.25
2022-11-04T03:32:08.467Z,99604.38
2022-11-04T03:34:37.710Z,99603.53
2022-11-04T03:37:05.465Z,99592.41
2022-11-04T03:39:33.153Z,99597.47
2022-11-04T03:42:20.548Z,99604.34
2022-11-04T03:44:53.554Z,99600.97
2022-11-04T03:47:26.622Z,99596.66
2022-11-04T03:50:09.910Z,99598.38
2022-11-04T03:52:37.275Z,99596.69
2022-11-04T03:55:06.431Z,99605.25
2022-11-04T03:58:01.261Z,99604.44
2022-11-04T04:00:34.084Z,99595.81
2022-11-04T04:03:16.136Z,99594.13
2022-11-04T04:06:02.952Z,99594.19
2022-11-04T04:08:44.724Z,99591.69
2022-11-04T04:11:41.838Z,99587.38
2022-11-04T04:14:11.658Z,99590.78
2022-11-04T04:16:41.692Z,99589.94
2022-11-04T04:19:13.985Z,99591.63
2022-11-04T04:21:59.287Z,99578.78
2022-11-04T04:24:51.748Z,99577.97
2022-11-04T04:27:33.348Z,99575.41
2022-11-04T04:30:06.632Z,99579.72
2022-11-04T04:32:47.500Z,99578.88
2022-11-04T04:35:33.790Z,99582.31
2022-11-04T04:38:25.602Z,99572.97
2022-11-04T04:41:18.749Z,99570.34
2022-11-04T04:44:04.298Z,99567.81
2022-11-04T04:46:32.691Z,99566.94
2022-11-04T04:49:08.428Z,99565.22
2022-11-04T04:51:39.944Z,99570.38
2022-11-04T04:54:07.745Z,99555.81
2022-11-04T04:56:34.880Z,99563.53
2022-11-04T04:59:01.922Z,99553.19
2022-11-04T05:01:29.341Z,99546.38
2022-11-04T05:03:56.504Z,99554.97
2022-11-04T05:06:23.537Z,99548.16
2022-11-04T05:08:50.590Z,99558.44
2022-11-04T05:11:20.493Z,99557.63
2022-11-04T05:13:49.871Z,99560.16
2022-11-04T05:16:16.920Z,99567.03
2022-11-04T05:18:44.106Z,99568.78
2022-11-04T05:21:14.388Z,99569.66
2022-11-04T05:23:41.392Z,99570.50
2022-11-04T05:26:08.609Z,99556.88
2022-11-04T05:28:35.735Z,99560.31
2022-11-04T05:31:04.584Z,99564.59
2022-11-04T05:33:32.263Z,99563.72
2022-11-04T05:36:11.343Z,99562.00
2022-11-04T05:38:39.509Z,99570.66
2022-11-04T05:41:08.144Z,99568.91
2022-11-04T05:43:35.290Z,99564.63
2022-11-04T05:46:02.988Z,99566.34
2022-11-04T05:48:30.146Z,99568.94
2022-11-04T05:50:57.493Z,99562.09
2022-11-04T05:53:24.680Z,99559.53
2022-11-04T05:55:51.905Z,99558.66
2022-11-04T05:58:19.073Z,99558.66
2022-11-04T06:00:46.185Z,99554.38
2022-11-04T06:03:16.225Z,99555.22
2022-11-04T06:05:43.797Z,99560.34
2022-11-04T06:08:10.966Z,99557.78
2022-11-04T06:10:38.356Z,99551.75
2022-11-04T06:13:05.528Z,99557.78
2022-11-04T06:15:32.663Z,99564.63
2022-11-04T06:17:59.793Z,99564.63
2022-11-04T06:20:26.823Z,99565.47
2022-11-04T06:22:54.017Z,99566.31
2022-11-04T06:25:21.233Z,99574.94
2022-11-04T06:27:48.369Z,99570.63
2022-11-04T06:30:15.665Z,99562.13
2022-11-04T06:32:42.841Z,99579.16
2022-11-04T06:35:10.031Z,99577.44
2022-11-04T06:37:38.104Z,99580.03
2022-11-04T06:40:05.753Z,99577.47
2022-11-04T06:42:32.785Z,99578.31
2022-11-04T06:44:59.904Z,99584.31
2022-11-04T06:47:26.966Z,99588.59
2022-11-04T06:49:54.112Z,99585.16
2022-11-04T06:52:21.239Z,99586.88
2022-11-04T06:54:48.353Z,99587.69
2022-11-04T06:57:15.429Z,99585.97
2022-11-04T06:59:42.474Z,99585.94
2022-11-04T07:02:11.945Z,99569.66
2022-11-04T07:04:39.076Z,99578.16
2022-11-04T07:07:06.293Z,99573.81
2022-11-04T07:09:34.097Z,99578.06
2022-11-04T07:12:01.628Z,99580.56
2022-11-04T07:14:28.909Z,99566.84
2022-11-04T07:16:55.952Z,99582.16
2022-11-04T07:19:23.065Z,99582.13
2022-11-04T07:21:50.403Z,99585.50
2022-11-04T07:24:17.776Z,99575.16
2022-11-04T07:26:45.068Z,99587.09
2022-11-04T07:29:12.259Z,99585.31
2022-11-04T07:31:39.555Z,99570.75
2022-11-04T07:34:06.817Z,99570.69
2022-11-04T07:36:34.034Z,99576.56
2022-11-04T07:39:02.272Z,99569.69
2022-11-04T07:41:29.794Z,99575.63
2022-11-04T07:43:59.066Z,99568.69
2022-11-04T07:46:26.184Z,99571.19
2022-11-04T07:48:53.356Z,99564.28
2022-11-04T07:51:21.499Z,99567.69
2022-11-04T07:53:48.584Z,99571.94
2022-11-04T07:56:16.312Z,99553.88
2022-11-04T07:58:43.597Z,99557.22
2022-11-04T08:01:14.099Z,99562.38
2022-11-04T08:03:41.380Z,99562.28
2022-11-04T08:06:11.788Z,99565.72
2022-11-04T08:08:39.082Z,99566.56
2022-11-04T08:11:17.031Z,99569.13
2022-11-04T08:13:46.374Z,99555.34
2022-11-04T08:16:16.441Z,99557.91
2022-11-04T08:18:44.650Z,99566.44
2022-11-04T08:21:12.168Z,99562.97
2022-11-04T08:23:39.346Z,99556.94
2022-11-04T08:26:11.481Z,99572.38
2022-11-04T08:28:39.736Z,99565.50
2022-11-04T08:31:08.298Z,99564.53
2022-11-04T08:33:36.856Z,99563.69
2022-11-04T08:36:10.076Z,99556.69
2022-11-04T08:38:37.674Z,99554.88
2022-11-04T08:41:06.659Z,99549.66
2022-11-04T08:43:35.106Z,99551.38
2022-11-04T08:46:03.100Z,99555.66
2022-11-04T08:48:30.242Z,99564.19
2022-11-04T08:51:01.227Z,99564.06
2022-11-04T08:53:28.407Z,99559.66
2022-11-04T08:55:55.611Z,99555.22
2022-11-04T08:58:24.986Z,99557.66
2022-11-04T09:00:52.558Z,99551.47
2022-11-04T09:03:19.704Z,99566.78
2022-11-04T09:05:49.287Z,99562.34
2022-11-04T09:08:18.131Z,99555.41
2022-11-04T09:10:48.188Z,99569.22
2022-11-04T09:13:16.653Z,99555.59
2022-11-04T09:15:44.465Z,99564.16
2022-11-04T09:18:11.746Z,99563.41
2022-11-04T09:20:38.957Z,99563.34
2022-11-04T09:23:06.868Z,99562.56
2022-11-04T09:25:35.528Z,99562.63
2022-11-04T09:28:02.674Z,99555.78
2022-11-04T09:30:29.767Z,99554.91
2022-11-04T09:32:56.879Z,99555.78
2022-11-04T09:35:24.461Z,99548.88
2022-11-04T09:37:51.678Z,99555.72
2022-11-04T09:40:22.033Z,99547.97
2022-11-04T09:42:49.262Z,99550.59
2022-11-04T09:45:23.227Z,99552.28
2022-11-04T09:47:55.433Z,99540.16
2022-11-04T09:50:34.376Z,99538.38
2022-11-04T09:53:07.716Z,99536.59
2022-11-04T09:56:02.546Z,99527.09
2022-11-04T09:58:37.019Z,99521.00
2022-11-04T10:01:20.988Z,99526.16
2022-11-04T10:04:02.021Z,99522.59
2022-11-04T10:07:17.142Z,99522.53
2022-11-04T10:10:00.737Z,99514.72
2022-11-04T10:13:08.083Z,99518.94
2022-11-04T10:15:44.779Z,99518.88
2022-11-04T10:18:20.959Z,99522.22
2022-11-04T10:20:48.297Z,99508.34
2022-11-04T10:23:31.727Z,99502.28
2022-11-04T10:26:15.477Z,99502.38
2022-11-04T10:28:53.382Z,99498.94
2022-11-04T10:31:20.672Z,99494.66
2022-11-04T10:33:55.329Z,99486.97
2022-11-04T10:36:25.237Z,99484.41
2022-11-04T10:38:56.984Z,99479.25
2022-11-04T10:41:39.546Z,99491.41
2022-11-04T10:44:20.428Z,99496.56
2022-11-04T10:46:54.561Z,99501.81
2022-11-04T10:52:45.868Z,99479.56
2022-11-04T10:55:31.194Z,99480.38
2022-11-04T10:57:59.550Z,99486.41
2022-11-04T11:00:39.536Z,99470.13
2022-11-04T11:03:29.080Z,99459.03
2022-11-04T11:06:14.636Z,99466.78
2022-11-04T11:08:44.383Z,99472.00
2022-11-04T11:11:13.539Z,99437.00
2022-11-04T11:13:43.829Z,99469.31
2022-11-04T11:16:13.631Z,99478.00
2022-11-04T11:18:42.233Z,99482.41
2022-11-04T11:21:16.237Z,99483.34
2022-11-04T11:23:48.712Z,99488.53
2022-11-04T11:26:20.029Z,99479.06
2022-11-04T11:29:02.470Z,99467.91
2022-11-04T11:31:38.179Z,99469.59
2022-11-04T11:34:22.190Z,99465.38
2022-11-04T11:36:50.173Z,99469.75
2022-11-04T11:39:22.189Z,99472.31
2022-11-04T11:42:04.507Z,99467.09
2022-11-04T11:44:37.676Z,99471.56
2022-11-04T11:47:07.628Z,99478.47
2022-11-04T11:49:36.921Z,99477.56
2022-11-04T11:52:27.668Z,99481.00
2022-11-04T11:55:04.443Z,99468.22
2022-11-04T12:00:40.268Z,99465.63
2022-11-04T12:06:30.319Z,99468.28
2022-11-04T12:09:35.051Z,99464.94
2022-11-04T12:12:16.734Z,99463.28
2022-11-04T12:15:05.218Z,99462.53
2022-11-04T12:18:09.591Z,99466.94
2022-11-04T12:20:39.559Z,99470.50
2022-11-04T12:23:25.226Z,99463.69
2022-11-04T12:26:14.188Z,99468.91
2022-11-04T12:29:09.144Z,99456.88
2022-11-04T12:31:54.707Z,99453.47
2022-11-04T12:35:03.085Z,99453.50
2022-11-04T12:38:05.627Z,99455.28
2022-11-04T12:41:04.865Z,99444.94
2022-11-04T12:43:43.431Z,99450.09
2022-11-04T12:46:30.736Z,99438.88
2022-11-04T12:49:21.096Z,99444.88
2022-11-04T12:52:26.696Z,99439.69
2022-11-04T12:55:14.467Z,99441.38
2022-11-04T12:57:47.299Z,99441.38
2022-11-04T13:00:17.825Z,99431.06
2022-11-04T13:03:00.139Z,99429.31
2022-11-04T13:05:58.645Z,99426.69
2022-11-04T13:08:31.389Z,99425.00
2022-11-04T13:11:24.046Z,99424.16
2022-11-04T13:14:01.752Z,99424.22
2022-11-04T13:16:31.903Z,99418.97
2022-11-04T13:18:59.907Z,99413.81
2022-11-04T13:21:34.557Z,99414.66
2022-11-04T13:24:32.188Z,99406.94
2022-11-04T13:27:04.037Z,99400.16
2022-11-04T13:29:34.749Z,99391.56
2022-11-04T13:32:07.512Z,99389.03
2022-11-04T13:35:16.305Z,99400.28
2022-11-04T13:37:58.789Z,99395.19
2022-11-04T13:40:52.705Z,99400.28
2022-11-04T13:43:40.196Z,99412.28
2022-11-04T13:46:19.265Z,99414.84
2022-11-04T13:49:11.618Z,99429.47
2022-11-04T13:51:43.423Z,99432.88
2022-11-04T13:54:34.211Z,99441.44
2022-11-04T13:57:12.630Z,99444.88
2022-11-04T13:59:40.670Z,99443.97
2022-11-04T14:02:19.814Z,99452.53
2022-11-04T14:04:47.946Z,99464.59
2022-11-04T14:07:18.196Z,99453.41
2022-11-04T14:09:45.264Z,99460.28
2022-11-04T14:12:17.270Z,99462.81
2022-11-04T14:14:46.218Z,99463.69
2022-11-04T14:17:35.303Z,99468.88
2022-11-04T14:20:07.937Z,99473.97
2022-11-04T14:22:49.514Z,99467.09
2022-11-04T14:25:36.715Z,99463.59
2022-11-04T14:28:19.946Z,99467.94
2022-11-04T14:30:53.704Z,99461.06
2022-11-04T14:33:29.226Z,99462.81
2022-11-04T14:35:57.844Z,99458.53
2022-11-04T14:38:27.515Z,99464.53
2022-11-04T14:41:16.587Z,99454.22
2022-11-04T14:43:46.838Z,99455.00
2022-11-04T14:46:22.389Z,99455.00
2022-11-04T14:48:53.667Z,99453.25
2022-11-04T14:51:41.006Z,99449.78
2022-11-04T14:54:20.469Z,99454.94
2022-11-04T14:56:47.637Z,99447.25
2022-11-04T14:59:23.309Z,99450.63
2022-11-04T15:01:52.645Z,99447.97
2022-11-04T15:04:31.247Z,99446.28
2022-11-04T15:07:01.649Z,99458.28
2022-11-04T15:09:28.535Z,99451.44
2022-11-04T15:12:32.445Z,99448.84
2022-11-04T15:15:00.266Z,99453.13
2022-11-04T15:17:31.584Z,99456.53
2022-11-04T15:20:02.236Z,99454.78
2022-11-04T15:22:30.715Z,99460.81
2022-11-04T15:25:02.876Z,99454.78
2022-11-04T15:27:30.663Z,99453.06
2022-11-04T15:30:00.886Z,99456.47
2022-11-04T15:32:28.307Z,99460.75
2022-11-04T15:34:56.620Z,99450.53
2022-11-04T15:37:26.182Z,99455.59
2022-11-04T15:39:56.679Z,99455.66
2022-11-04T15:43:00.244Z,99460.72
2022-11-04T15:45:38.591Z,99458.22
2022-11-04T15:48:35.032Z,99453.91
2022-11-04T15:51:22.908Z,99453.91
2022-11-04T15:54:06.368Z,99462.47
2022-11-04T15:56:42.666Z,99454.72
2022-11-04T15:59:16.104Z,99451.31
2022-11-04T16:01:48.810Z,99459.81
2022-11-04T16:04:18.285Z,99463.25
2022-11-04T16:06:48.272Z,99447.84
2022-11-04T16:09:27.144Z,99456.41
2022-11-04T16:12:16.775Z,99465.81
2022-11-04T16:14:52.365Z,99466.66
2022-11-04T16:17:20.764Z,99482.13
2022-11-04T16:20:04.557Z,99476.09
2022-11-04T16:22:35.632Z,99475.19
2022-11-04T16:25:05.716Z,99482.94
2022-11-04T16:27:35.375Z,99472.69
2022-11-04T16:30:06.474Z,99478.59
2022-11-04T16:32:44.198Z,99483.78
2022-11-04T16:35:22.054Z,99482.94
2022-11-04T16:37:50.989Z,99484.63
2022-11-04T16:40:19.462Z,99481.25
2022-11-04T16:42:47.712Z,99481.19
2022-11-04T16:45:23.854Z,99482.88
2022-11-04T16:47:51.436Z,99487.19
2022-11-04T16:50:18.854Z,99487.19
2022-11-04T16:52:46.114Z,99478.59
2022-11-04T16:55:15.046Z,99479.47
2022-11-04T16:57:42.786Z,99477.66
2022-11-04T17:00:23.415Z,99475.06
2022-11-04T17:02:51.768Z,99478.47
2022-11-04T17:05:19.638Z,99480.19
2022-11-04T17:07:53.776Z,99476.72
2022-11-04T17:10:25.673Z,99476.72
2022-11-04T17:12:53.160Z,99471.56
2022-11-04T17:15:20.577Z,99473.25
2022-11-04T17:17:47.791Z,99465.56
2022-11-04T17:20:17.886Z,99473.25
2022-11-04T17:22:47.166Z,99466.41
2022-11-04T17:25:21.123Z,99460.41
2022-11-04T17:27:49.313Z,99453.47
2022-11-04T17:30:17.452Z,99457.75
2022-11-04T17:32:45.884Z,99454.34
2022-11-04T17:35:13.874Z,99448.31
2022-11-04T17:37:41.792Z,99441.41
2022-11-04T17:40:13.903Z,99450.00
2022-11-04T17:42:59.958Z,99447.47
2022-11-04T17:45:27.223Z,99443.22
2022-11-04T17:47:54.349Z,99437.22
2022-11-04T17:50:21.786Z,99433.81
2022-11-04T17:52:49.506Z,99440.63
2022-11-04T17:55:20.701Z,99429.47
2022-11-04T17:57:50.314Z,99432.88
2022-11-04T18:00:18.394Z,99438.06
2022-11-04T18:02:49.111Z,99434.63
2022-11-04T18:05:16.425Z,99439.78
2022-11-04T18:07:43.487Z,99435.53
2022-11-04T18:10:11.668Z,99433.81
2022-11-04T18:12:38.909Z,99434.63
2022-11-04T18:15:10.321Z,99437.19
2022-11-04T18:17:39.355Z,99440.63
2022-11-04T18:20:13.391Z,99431.97
2022-11-04T18:22:42.784Z,99438.00
2022-11-04T18:25:11.614Z,99432.81
2022-11-04T18:27:39.046Z,99433.66
2022-11-04T18:30:07.291Z,99432.03
2022-11-04T18:32:34.381Z,99430.28
2022-11-04T18:35:01.480Z,99431.97
2022-11-04T18:37:29.192Z,99433.63
2022-11-04T18:39:56.386Z,99430.16
2022-11-04T18:42:23.509Z,99435.31
2022-11-04T18:44:50.837Z,99427.59
2022-11-04T18:47:18.268Z,99432.81
2022-11-04T18:49:47.220Z,99443.06
2022-11-04T18:52:14.566Z,99443.97
2022-11-04T18:54:44.889Z,99435.47
2022-11-04T18:57:12.376Z,99443.97
2022-11-04T18:59:39.617Z,99445.78
2022-11-04T19:02:08.313Z,99442.41
2022-11-04T19:04:35.535Z,99450.13
2022-11-04T19:07:04.568Z,99449.31
2022-11-04T19:09:46.121Z,99446.78
2022-11-04T19:12:32.667Z,99437.44
2022-11-04T19:14:59.834Z,99450.22
2022-11-04T19:17:27.032Z,99452.84
2022-11-04T19:19:54.242Z,99447.75
2022-11-04T19:22:21.537Z,99451.13
2022-11-04T19:24:48.855Z,99439.16
2022-11-04T19:27:18.047Z,99437.41
2022-11-04T19:29:46.143Z,99437.41
2022-11-04T19:32:14.513Z,99437.44
2022-11-04T19:34:42.818Z,99430.59
2022-11-04T19:37:11.006Z,99434.84
2022-11-04T19:39:38.998Z,99442.59
2022-11-04T19:42:24.488Z,99434.06
2022-11-04T19:44:51.859Z,99435.00
2022-11-04T19:47:19.248Z,99434.97
2022-11-04T19:49:46.497Z,99443.50
2022-11-04T19:52:14.054Z,99446.09
2022-11-04T19:54:41.188Z,99456.41
2022-11-04T19:57:08.379Z,99447.84
2022-11-04T19:59:35.591Z,99453.91
2022-11-04T20:02:02.858Z,99459.00
2022-11-04T20:04:30.096Z,99454.78
2022-11-04T20:06:57.227Z,99453.84
2022-11-04T20:09:26.208Z,99461.59
2022-11-04T20:12:11.870Z,99454.72
2022-11-04T20:14:39.448Z,99465.06
2022-11-04T20:17:07.382Z,99461.66
2022-11-04T20:19:35.474Z,99459.00
2022-11-04T20:22:03.676Z,99453.06
2022-11-04T20:24:31.006Z,99454.78
2022-11-04T20:26:58.153Z,99451.31
2022-11-04T20:29:25.197Z,99445.31
2022-11-04T20:31:52.367Z,99450.41
2022-11-04T20:34:19.654Z,99447.84
2022-11-04T20:36:47.006Z,99444.50
2022-11-04T20:39:17.606Z,99463.34
2022-11-04T20:41:45.574Z,99465.13
2022-11-04T20:44:14.966Z,99459.97
2022-11-04T20:46:43.296Z,99454.88
2022-11-04T20:49:11.371Z,99465.16
2022-11-04T20:51:50.105Z,99466.88
2022-11-04T20:54:19.046Z,99461.78
2022-11-04T20:56:46.238Z,99449.84
2022-11-04T20:59:14.190Z,99453.19
2022-11-04T21:01:43.616Z,99453.19
2022-11-04T21:04:15.244Z,99457.50
2022-11-04T21:06:42.867Z,99461.84
2022-11-04T21:09:13.037Z,99458.41
2022-11-04T21:11:40.911Z,99460.16
2022-11-04T21:14:11.752Z,99467.00
2022-11-04T21:16:38.996Z,99458.34
2022-11-04T21:19:06.728Z,99461.84
2022-11-04T21:21:33.878Z,99458.41
2022-11-04T21:24:03.395Z,99464.38
2022-11-04T21:26:34.337Z,99461.84
2022-11-04T21:29:07.309Z,99474.69
2022-11-04T21:31:36.469Z,99472.91
2022-11-04T21:34:04.927Z,99478.06
2022-11-04T21:36:32.907Z,99476.34
2022-11-04T21:39:00.585Z,99477.25
2022-11-04T21:41:30.758Z,99475.47
2022-11-04T21:44:03.187Z,99478.88
2022-11-04T21:46:31.854Z,99469.50
2022-11-04T21:48:59.717Z,99469.41
2022-11-04T21:51:29.821Z,99466.81
2022-11-04T21:53:58.288Z,99471.97
2022-11-04T21:56:28.027Z,99473.66
2022-11-04T21:58:56.152Z,99467.63
2022-11-04T22:01:26.461Z,99465.06
2022-11-04T22:03:54.885Z,99459.88
2022-11-04T22:06:22.851Z,99459.94
2022-11-04T22:08:54.547Z,99459.88
2022-11-04T22:11:24.912Z,99471.91
2022-11-04T22:13:57.031Z,99464.22
2022-11-04T22:16:27.181Z,99468.56
2022-11-04T22:18:56.147Z,99466.94
2022-11-04T22:21:25.216Z,99456.66
2022-11-04T22:23:52.666Z,99455.84
2022-11-04T22:26:22.311Z,99456.66
2022-11-04T22:28:49.465Z,99458.41
2022-11-04T22:31:24.519Z,99453.25
2022-11-04T22:33:52.466Z,99455.00
2022-11-04T22:36:20.365Z,99456.69
2022-11-04T22:38:47.780Z,99448.22
2022-11-04T22:41:19.615Z,99456.75
2022-11-04T22:43:46.857Z,99448.22
2022-11-04T22:46:19.746Z,99449.06
2022-11-04T22:48:47.130Z,99455.97
2022-11-04T22:51:14.349Z,99442.22
2022-11-04T22:53:41.889Z,99443.19
2022-11-04T22:56:11.945Z,99444.81
2022-11-04T22:58:39.198Z,99456.88
2022-11-04T23:01:10.089Z,99453.47
2022-11-04T23:03:37.726Z,99444.88
2022-11-04T23:06:06.837Z,99443.13
2022-11-04T23:08:35.677Z,99444.88
2022-11-04T23:11:43.864Z,99439.69
2022-11-04T23:14:34.011Z,99438.88
2022-11-04T23:17:19.803Z,99438.81
2022-11-04T23:19:46.930Z,99443.13
2022-11-04T23:22:32.779Z,99444.09
2022-11-04T23:25:05.953Z,99438.03
2022-11-04T23:27:53.104Z,99433.78
2022-11-04T23:30:26.811Z,99434.59
2022-11-04T23:33:02.473Z,99432.88
2022-11-04T23:35:58.140Z,99433.78
2022-11-04T23:38:25.946Z,99426.06
2022-11-04T23:41:15.562Z,99419.13
2022-11-04T23:43:42.777Z,99436.34
2022-11-04T23:46:29.536Z,99438.09
2022-11-04T23:49:15.393Z,99442.38
2022-11-04T23:52:01.311Z,99439.78
2022-11-04T23:54:47.199Z,99438.94
2022-11-04T23:57:35.126Z,99443.25
